EGLLLFOH

Guest
Details From EGLL - London Heathrow
To LFOH - Le Havre Octeville
Flight Number -
Tags Generated
Created
Modified
Stats Distance 118 nm / 219 km
Max Altitude 0 ft / 0 m
Waypoints 2
Social Downloads 0
Likes 0
Share VATSIM

Download

Looking for another format? Having issues loading an existing format? Contact us
Advertisement - Login to hide

Notes

Generated

Route

EGLL LFOH

ID Type Via Altitude Latitude Longitude Leg Dist Tot Dist Heading (true) Name
O EGLL APT - 0 ft / 0 m 51.46477˚ -0.48695˚ - 0 nm - -
O LFOH APT - 0 ft / 0 m 49.52653˚ 0.07759˚ 118 nm 118 nm 169° / 170° -

Altitude Profile

Advertisement - Login to hide

EGLL

Details ICAO EGLL (LHR)
Name London Heathrow
Region United Kingdom
Timezone Europe/London (UTC+0.0)
Stats Elevation 83 ft / 25 m (AMSL)
Location 51.471218° -0.460978°
Runways 2
Magnetic Variation 0.561° W

METAR

EGLL 112120Z AUTO 29008KT 9999 NCD 00/M04 Q0996 NOSIG

Decode

TAF

TAF EGLL 111709Z 1118/1224 33012KT CAVOK PROB30 TEMPO 1118/1119 34015G25KT BECMG 1200/1203 27004KT PROB30 TEMPO 1203/1209 6000 PROB30 1216/1224 7000

Decode

Departure Runways

ID Width Length Bearing (true) Bearing (mag) Surface Threshold Offset Overrun Length
09L 164 ft / 50 m 12,811 ft / 3,905 m 89.64° 90.20° Asphalt 1,004 ft / 306 m 0 ft / 0 m
09R 164 ft / 50 m 12,019 ft / 3,663 m 89.67° 90.23° Asphalt 1,007 ft / 307 m 0 ft / 0 m
27L 164 ft / 50 m 12,019 ft / 3,663 m 269.71° 270.27° Asphalt 0 ft / 0 m 69 ft / 21 m
27R 164 ft / 50 m 12,811 ft / 3,905 m 269.69° 270.25° Asphalt 0 ft / 0 m 69 ft / 21 m

LFOH

Details ICAO LFOH (LEH)
Name Le Havre-Octeville
Region France
Timezone Europe/Paris (UTC+1.0)
Stats Elevation 311 ft / 95 m (AMSL)
Location 49.534079° 0.088457°
Runways 1
Magnetic Variation 0.180° W

METAR

LFOH 112130Z AUTO 34016KT 320V020 9999 BKN029 BKN037 BKN047 05/01 Q0997

Decode

TAF

TAF TAF LFOH 111858Z 1118/1212 CNL

Decode

Destination Runways

ID Width Length Bearing (true) Bearing (mag) Surface Threshold Offset Overrun Length
04 131 ft / 40 m 7,553 ft / 2,302 m 43.07° 43.25° Asphalt 0 ft / 0 m 0 ft / 0 m
22 131 ft / 40 m 7,553 ft / 2,302 m 223.08° 223.26° Asphalt 0 ft / 0 m 0 ft / 0 m

Approach Navaids

Runway Type Ident Frequency Range Bearing (true) Bearing (mag) Slope Elevation
22 Localiser OT 109.50 MHz 18 nm / 33 km 223.06° 223.24° - 322 ft / 98 m (AMSL)
22 Glidescope OT 109.50 MHz 10 nm / 19 km 223.07° 223.25° 3.00° 313 ft / 95 m (AMSL)
22 DME OT 109.50 MHz 18 nm / 33 km - - - 354 ft / 108 m (AMSL)